createdAt,value
2018-05-02T00:00:31.761Z,71.49
2018-05-02T00:01:41.819Z,71.49
2018-05-02T00:02:51.628Z,71.59
2018-05-02T00:04:01.455Z,71.3
2018-05-02T00:05:11.544Z,71.2
2018-05-02T00:06:21.616Z,71.4
2018-05-02T00:07:31.708Z,71.59
2018-05-02T00:08:41.566Z,71.2
2018-05-02T00:09:51.653Z,71.59
2018-05-02T00:11:01.733Z,71.2
2018-05-02T00:12:11.857Z,71.4
2018-05-02T00:13:21.937Z,71.4
2018-05-02T00:14:31.527Z,71.3
2018-05-02T00:15:41.336Z,71.3
2018-05-02T00:16:51.157Z,71.69
2018-05-02T00:18:01.435Z,71.49
2018-05-02T00:19:12.150Z,71.49
2018-05-02T00:20:22.233Z,71.59
2018-05-02T00:21:32.309Z,71.49
2018-05-02T00:22:42.393Z,71.3
2018-05-02T00:23:52.257Z,71.36
2018-05-02T00:25:02.089Z,71.4
2018-05-02T00:26:11.913Z,71.46
2018-05-02T00:27:21.997Z,71.55
2018-05-02T00:28:32.099Z,71.65
2018-05-02T00:29:42.396Z,71.55
2018-05-02T00:30:52.484Z,71.46
2018-05-02T00:32:02.553Z,71.46
2018-05-02T00:33:12.636Z,71.36
2018-05-02T00:34:22.718Z,71.36
2018-05-02T00:35:32.543Z,71.84
2018-05-02T00:36:42.619Z,71.94
2018-05-02T00:37:52.697Z,71.94
2018-05-02T00:39:02.786Z,71.84
2018-05-02T00:40:12.877Z,71.81
2018-05-02T00:41:22.951Z,71.81
2018-05-02T00:42:33.029Z,71.91
2018-05-02T00:43:43.107Z,71.81
2018-05-02T00:44:53.196Z,71.71
2018-05-02T00:46:03.336Z,71.91
2018-05-02T00:47:13.420Z,72
2018-05-02T00:48:23.513Z,72.09
2018-05-02T00:49:33.620Z,71.71
2018-05-02T00:50:43.705Z,71.81
2018-05-02T00:51:53.814Z,71.71
2018-05-02T00:53:03.955Z,71.81
2018-05-02T00:54:13.516Z,71.81
2018-05-02T00:55:23.615Z,71.23
2018-05-02T00:56:33.421Z,71.33
2018-05-02T00:57:43.496Z,71.42
2018-05-02T00:58:53.567Z,71.81
2018-05-02T01:00:03.661Z,71.71
2018-05-02T01:01:13.738Z,71.87
2018-05-02T01:02:23.826Z,71.87
2018-05-02T01:03:33.631Z,71.87
2018-05-02T01:04:43.543Z,71.87
2018-05-02T01:05:53.614Z,71.19
2018-05-02T01:07:03.430Z,71.48
2018-05-02T01:08:13.522Z,71.19
2018-05-02T01:09:23.598Z,71.29
2018-05-02T01:10:33.680Z,71.48
2018-05-02T01:11:43.757Z,71.48
2018-05-02T01:12:53.302Z,71
2018-05-02T01:14:03.391Z,71.48
2018-05-02T01:15:13.481Z,71.48
2018-05-02T01:16:23.553Z,71.19
2018-05-02T01:17:33.625Z,71.39
2018-05-02T01:18:43.725Z,71.48
2018-05-02T01:19:53.793Z,71.48
2018-05-02T01:21:03.859Z,71.48
2018-05-02T01:22:13.943Z,71.48
2018-05-02T01:23:24.026Z,71.58
2018-05-02T01:24:34.107Z,71.29
2018-05-02T01:25:44.182Z,71.67
2018-05-02T01:26:54.258Z,71
2018-05-02T01:28:04.082Z,71.19
2018-05-02T01:29:14.161Z,71.48
2018-05-02T01:30:23.966Z,71.48
2018-05-02T01:31:34.046Z,71.48
2018-05-02T01:32:44.360Z,71.29
2018-05-02T01:33:53.905Z,71.39
2018-05-02T01:35:03.965Z,71.58
2018-05-02T01:36:13.784Z,71.06
2018-05-02T01:37:23.860Z,71.45
2018-05-02T01:38:33.938Z,71.35
2018-05-02T01:39:43.755Z,71.25
2018-05-02T01:40:53.826Z,71.25
2018-05-02T01:42:03.901Z,70.97
2018-05-02T01:43:13.990Z,71.45
2018-05-02T01:44:24.060Z,71.45
2018-05-02T01:45:34.132Z,70.9
2018-05-02T01:46:43.420Z,71.35
2018-05-02T01:47:53.235Z,70.78
2018-05-02T01:49:03.307Z,70.68
2018-05-02T01:50:13.118Z,70.39
2018-05-02T01:51:23.481Z,70.62
2018-05-02T01:52:33.574Z,70.49
2018-05-02T01:53:43.383Z,70.52
2018-05-02T01:54:53.462Z,70.81
2018-05-02T01:56:03.299Z,70.49
2018-05-02T01:57:13.375Z,70.62
2018-05-02T01:58:23.432Z,70.43
2018-05-02T01:59:33.509Z,70.78
2018-05-02T02:00:43.584Z,70.97
2018-05-02T02:01:53.405Z,70.78
2018-05-02T02:03:03.570Z,71.35
2018-05-02T02:04:13.653Z,71.35
2018-05-02T02:05:23.723Z,71.25
2018-05-02T02:06:33.791Z,71.25
2018-05-02T02:07:43.606Z,71.16
2018-05-02T02:08:53.676Z,71.25
2018-05-02T02:10:03.489Z,71.25
2018-05-02T02:11:13.325Z,71.25
2018-05-02T02:12:23.412Z,71.16
2018-05-02T02:13:33.247Z,70.97
2018-05-02T02:14:43.380Z,71.41
2018-05-02T02:15:53.458Z,71.41
2018-05-02T02:17:03.530Z,71.41
2018-05-02T02:18:13.611Z,71.41
2018-05-02T02:19:23.687Z,71.22
2018-05-02T02:20:33.526Z,71.22
2018-05-02T02:21:43.600Z,71.31
2018-05-02T02:22:53.682Z,71.22
2018-05-02T02:24:03.501Z,71.31
2018-05-02T02:25:13.576Z,71.41
2018-05-02T02:26:23.678Z,71.37
2018-05-02T02:27:33.764Z,71.76
2018-05-02T02:28:43.861Z,71.37
2018-05-02T02:29:53.673Z,71.28
2018-05-02T02:31:03.775Z,71.28
2018-05-02T02:32:13.876Z,71.47
2018-05-02T02:33:23.968Z,71.19
2018-05-02T02:34:34.063Z,71.03
2018-05-02T02:35:43.875Z,70.99
2018-05-02T02:36:53.952Z,70.93
2018-05-02T02:38:04.079Z,71.41
2018-05-02T02:39:13.905Z,71.12
2018-05-02T02:40:23.967Z,70.99
2018-05-02T02:41:33.784Z,70.99
2018-05-02T02:42:43.871Z,71.37
2018-05-02T02:43:53.738Z,70.93
2018-05-02T02:45:03.846Z,71.37
2018-05-02T02:46:13.677Z,71.37
2018-05-02T02:47:23.752Z,71.41
2018-05-02T02:48:33.579Z,71.41
2018-05-02T02:49:43.670Z,71.41
2018-05-02T02:50:53.781Z,71.03
2018-05-02T02:52:03.869Z,71.37
2018-05-02T02:53:13.674Z,71.47
2018-05-02T02:54:23.751Z,71.28
2018-05-02T02:55:33.894Z,71.19
2018-05-02T02:56:43.992Z,71.37
2018-05-02T02:57:53.804Z,71.66
2018-05-02T02:59:03.883Z,71.09
2018-05-02T03:00:13.975Z,71.28
2018-05-02T03:01:24.140Z,71.28
2018-05-02T03:34:02.274Z,67.08
2018-05-02T03:35:12.355Z,67.76
2018-05-02T03:36:22.444Z,68.42
2018-05-02T03:37:32.259Z,69
2018-05-02T03:38:42.328Z,69.48
2018-05-02T03:39:52.140Z,70.24
2018-05-02T03:41:02.277Z,70.18
2018-05-02T03:42:12.344Z,70.76
2018-05-02T03:43:22.419Z,70.47
2018-05-02T03:44:32.501Z,71.17
2018-05-02T03:45:42.328Z,71.27
2018-05-02T03:46:52.151Z,71.37
2018-05-02T03:48:02.225Z,70.79
2018-05-02T03:49:12.298Z,71.31
2018-05-02T03:50:22.366Z,71.21
2018-05-02T03:51:32.219Z,70.86
2018-05-02T03:52:42.284Z,71.05
2018-05-02T03:53:52.352Z,71.15
2018-05-02T03:55:02.165Z,71.25
2018-05-02T03:56:12.243Z,70.9
2018-05-02T03:57:22.370Z,71.09
2018-05-02T03:58:32.185Z,71.57
2018-05-02T03:59:42.414Z,71.09
2018-05-02T04:00:52.359Z,71.19
2018-05-02T04:02:02.156Z,71.19
2018-05-02T04:03:11.969Z,71.19
2018-05-02T04:04:22.042Z,71.28
2018-05-02T04:05:31.888Z,71.22
2018-05-02T04:06:41.720Z,71.22
2018-05-02T04:07:51.810Z,71.22
2018-05-02T04:09:01.943Z,71.31
2018-05-02T04:10:12.014Z,70.74
2018-05-02T04:11:22.089Z,71.41
2018-05-02T04:12:31.642Z,70.55
2018-05-02T04:13:41.713Z,70.74
2018-05-02T04:14:51.846Z,70.68
2018-05-02T04:16:01.919Z,70.78
2018-05-02T04:17:12.012Z,70.68
2018-05-02T04:18:22.097Z,70.97
2018-05-02T04:19:32.178Z,70.68
2018-05-02T04:20:42.330Z,70.97
2018-05-02T04:21:52.400Z,70.87
2018-05-02T04:23:01.949Z,70.87
2018-05-02T04:24:11.788Z,70.68
2018-05-02T04:25:21.599Z,70.78
2018-05-02T04:26:31.680Z,70.68
2018-05-02T04:27:41.743Z,71
2018-05-02T04:28:51.556Z,70.72
2018-05-02T04:30:01.635Z,71
2018-05-02T04:31:11.453Z,71
2018-05-02T04:32:21.534Z,71.1
2018-05-02T04:33:31.623Z,71.1
2018-05-02T04:34:41.180Z,71.1
2018-05-02T04:35:51.007Z,71
2018-05-02T04:37:01.078Z,71
2018-05-02T04:38:11.170Z,71
2018-05-02T04:39:21.231Z,71
2018-05-02T04:40:31.319Z,71
2018-05-02T04:41:41.436Z,71.14
2018-05-02T04:42:51.519Z,71.14
2018-05-02T04:44:01.343Z,70.65
2018-05-02T04:45:11.424Z,70.65
2018-05-02T04:46:21.522Z,70.94
2018-05-02T04:47:31.591Z,70.75
2018-05-02T04:48:41.410Z,70.17
2018-05-02T04:49:51.538Z,70.4
2018-05-02T04:51:01.643Z,70.11
2018-05-02T04:52:11.725Z,70.01
2018-05-02T04:53:21.543Z,69.92
2018-05-02T04:54:31.626Z,70.01
2018-05-02T04:55:41.743Z,70.3
2018-05-02T04:56:51.555Z,70.21
2018-05-02T04:58:01.364Z,69.82
2018-05-02T04:59:11.164Z,70.11
2018-05-02T05:00:21.239Z,70.5
2018-05-02T05:01:31.329Z,70.21
2018-05-02T05:02:41.131Z,70.3
2018-05-02T05:03:51.215Z,70.59
2018-05-02T05:05:01.306Z,70.98
2018-05-02T05:06:10.600Z,71.08
2018-05-02T05:07:20.742Z,70.5
2018-05-02T05:08:30.564Z,69.02
2018-05-02T05:09:40.636Z,68.23
2018-05-02T05:10:50.716Z,68.04
2018-05-02T05:12:00.513Z,68.23
2018-05-02T05:13:10.591Z,67.81
2018-05-02T05:14:20.406Z,66.97
2018-05-02T05:15:30.476Z,66.63
2018-05-02T05:16:40.567Z,66.17
2018-05-02T05:17:50.647Z,66.4
2018-05-02T05:19:00.460Z,66.33
2018-05-02T05:20:10.280Z,67.05
2018-05-02T05:21:20.138Z,67.59
2018-05-02T05:22:30.228Z,68.24
2018-05-02T05:23:40.301Z,67.43
2018-05-02T05:24:50.128Z,67.37
2018-05-02T05:26:00.214Z,67.4
2018-05-02T05:27:10.300Z,67.02
2018-05-02T05:28:20.558Z,67.24
2018-05-02T05:29:30.648Z,67.44
2018-05-02T05:30:40.788Z,67.18
2018-05-02T05:31:50.886Z,67.11
2018-05-02T05:33:00.710Z,67.6
2018-05-02T05:34:10.534Z,67.02
2018-05-02T05:35:20.490Z,67.21
2018-05-02T05:36:30.864Z,67.73
2018-05-02T05:37:40.679Z,67.83
2018-05-02T05:38:50.776Z,68.21
2018-05-02T05:40:00.863Z,67.92
2018-05-02T05:41:10.691Z,68.31
2018-05-02T05:42:20.788Z,68.54
2018-05-02T05:43:30.964Z,68.35
2018-05-02T05:44:41.253Z,68.38
2018-05-02T05:45:51.344Z,67.99
2018-05-02T05:47:01.498Z,67.99
2018-05-02T05:48:11.637Z,68.28
2018-05-02T05:49:21.711Z,68.02
2018-05-02T05:50:31.799Z,68.12
2018-05-02T05:51:41.889Z,68.12
2018-05-02T05:52:51.978Z,68.99
2018-05-02T05:54:02.058Z,69.15
2018-05-02T05:55:12.594Z,69.9
2018-05-02T05:56:21.871Z,70.83
2018-05-02T05:57:31.961Z,71.15
2018-05-02T05:58:42.061Z,71.34
2018-05-02T05:59:52.210Z,71.8
2018-05-02T06:01:02.279Z,72.09
2018-05-02T06:02:11.850Z,71.8
2018-05-02T06:03:21.943Z,71.76
2018-05-02T06:04:32.021Z,71.95
2018-05-02T06:05:41.862Z,71.95
2018-05-02T06:06:52.129Z,71.28
2018-05-02T06:08:02.223Z,71.28
2018-05-02T06:09:12.392Z,71.24
2018-05-02T06:10:22.478Z,71.24
2018-05-02T06:11:32.312Z,71.53
2018-05-02T06:12:42.213Z,71.34
2018-05-02T06:13:52.691Z,71.04
2018-05-02T06:15:02.787Z,70.76
2018-05-02T06:16:12.590Z,70.66
2018-05-02T06:17:22.658Z,70.76
2018-05-02T06:18:32.753Z,70.56
2018-05-02T06:19:42.913Z,70.56
2018-05-02T06:20:53.007Z,70.37
2018-05-02T06:22:03.085Z,70.37
2018-05-02T06:23:13.257Z,70.37
2018-05-02T06:24:23.346Z,70.37
2018-05-02T06:25:33.441Z,70.47
2018-05-02T06:26:43.517Z,70.53
2018-05-02T06:27:53.427Z,70.14
2018-05-02T06:29:03.502Z,70.27
2018-05-02T06:30:13.312Z,70.27
2018-05-02T06:31:22.878Z,70.18
2018-05-02T06:32:32.965Z,70.08
2018-05-02T06:33:43.054Z,70.18
2018-05-02T06:34:53.155Z,70.27
2018-05-02T06:36:03.250Z,70.66
2018-05-02T06:37:13.340Z,70.66
2018-05-02T06:38:23.635Z,70.47
2018-05-02T06:39:33.452Z,70.66
2018-05-02T06:40:43.698Z,70.47
2018-05-02T06:41:52.994Z,70.34
2018-05-02T06:43:02.815Z,70.18
2018-05-02T06:44:12.714Z,70.66
2018-05-02T06:45:22.811Z,70.14
2018-05-02T06:46:32.629Z,70.14
2018-05-02T06:47:42.717Z,69.59
2018-05-02T06:48:52.031Z,70.04
2018-05-02T06:50:02.129Z,69.59
2018-05-02T06:51:12.231Z,69.98
2018-05-02T06:52:22.310Z,69.5
2018-05-02T06:53:32.427Z,70.37
2018-05-02T06:54:42.383Z,70.27
2018-05-02T06:55:52.695Z,69.69
2018-05-02T06:57:02.774Z,69.59
2018-05-02T06:58:12.944Z,69.79
2018-05-02T06:59:23.036Z,69.79
2018-05-02T07:00:32.865Z,69.69
2018-05-02T07:01:42.968Z,69.82
2018-05-02T07:02:53.131Z,70.01
2018-05-02T07:04:03.261Z,70.01
2018-05-02T07:05:13.077Z,70.01
2018-05-02T07:06:22.902Z,69.92
2018-05-02T07:07:32.476Z,69.73
2018-05-02T07:08:42.602Z,69.82
2018-05-02T07:09:52.823Z,70.01
2018-05-02T07:11:02.649Z,70.21
2018-05-02T07:12:12.744Z,70.11
2018-05-02T07:13:22.608Z,70.11
2018-05-02T07:14:32.810Z,70.15
2018-05-02T07:15:42.890Z,70.05
2018-05-02T07:16:52.979Z,70.05
2018-05-02T07:18:03.111Z,69.57
2018-05-02T07:19:13.205Z,69.57
2018-05-02T07:20:23.293Z,69.7
2018-05-02T07:21:33.440Z,69.6
2018-05-02T07:22:43.523Z,69.89
2018-05-02T07:23:53.604Z,69.31
2018-05-02T07:25:03.818Z,69.31
2018-05-02T07:26:13.911Z,69.41
2018-05-02T07:27:24.006Z,69.31
2018-05-02T07:28:34.111Z,69.41
2018-05-02T07:29:44.189Z,69.34
2018-05-02T07:30:54.276Z,69.41
2018-05-02T07:32:04.358Z,69.54
2018-05-02T07:33:14.234Z,69.15
2018-05-02T07:34:24.068Z,69.64
2018-05-02T07:35:34.151Z,69.54
2018-05-02T07:36:43.720Z,69.93
2018-05-02T07:37:53.845Z,70.12
2018-05-02T07:39:04.442Z,69.83
2018-05-02T07:40:14.542Z,69.28
2018-05-02T07:41:24.679Z,69.48
2018-05-02T07:42:34.853Z,70.45
2018-05-02T07:43:44.981Z,69.86
2018-05-02T07:44:54.567Z,69.28
2018-05-02T07:46:04.872Z,69.28
2018-05-02T07:47:14.715Z,69.76
2018-05-02T07:48:24.997Z,69.28
2018-05-02T07:49:34.668Z,69.09
2018-05-02T07:50:44.893Z,69.02
2018-05-02T07:51:55.158Z,68.83
2018-05-02T07:53:05.597Z,68.96
2018-05-02T07:54:15.778Z,67.93
2018-05-02T07:55:26.041Z,68.7
2018-05-02T07:56:36.463Z,68.15
2018-05-02T07:57:47.129Z,68.35
2018-05-02T07:58:57.257Z,68.35
2018-05-02T08:00:07.404Z,68.48
2018-05-02T08:01:17.576Z,68.09
2018-05-02T08:02:27.776Z,67.86
2018-05-02T08:03:38.016Z,68.84
2018-05-02T08:04:48.360Z,68.84
2018-05-02T08:05:58.630Z,68.74
2018-05-02T08:07:08.804Z,69.32
2018-05-02T08:08:19.137Z,69.13
2018-05-02T08:09:29.352Z,69.32
2018-05-02T08:10:39.371Z,69.38
2018-05-02T08:11:49.629Z,69.58
2018-05-02T08:13:00.133Z,69.67
2018-05-02T08:14:10.358Z,69.48
2018-05-02T08:15:20.761Z,69.58
2018-05-02T08:16:31.266Z,69.87
2018-05-02T08:17:41.482Z,70.36
2018-05-02T08:18:51.551Z,70.03
2018-05-02T08:20:01.581Z,69.84
2018-05-02T08:21:11.836Z,69.84
2018-05-02T08:22:21.688Z,69.64
2018-05-02T08:23:31.680Z,69.25
2018-05-02T08:24:42.054Z,69.58
2018-05-02T08:25:52.318Z,69.45
2018-05-02T08:27:02.616Z,69.48
2018-05-02T08:28:12.586Z,69.58
2018-05-02T08:29:22.729Z,69.77
2018-05-02T08:30:32.856Z,69.48
2018-05-02T08:31:43.158Z,69.48
2018-05-02T08:32:53.189Z,69.38
2018-05-02T08:34:03.419Z,69.38
2018-05-02T08:35:13.336Z,69.38
2018-05-02T08:36:23.556Z,69.58
2018-05-02T08:37:33.815Z,69.38
2018-05-02T08:38:44.067Z,69.58
2018-05-02T08:39:54.711Z,69.58
2018-05-02T08:41:04.877Z,69.67
2018-05-02T08:42:14.997Z,69.61
2018-05-02T08:43:24.338Z,69.9
2018-05-02T08:44:34.182Z,69.42
2018-05-02T08:45:44.030Z,69.32
2018-05-02T08:46:54.127Z,69.22
2018-05-02T08:48:04.209Z,69.06
2018-05-02T08:49:13.860Z,69.45
2018-05-02T08:50:23.682Z,69.26
2018-05-02T08:51:33.514Z,69.26
2018-05-02T08:52:43.333Z,69.16
2018-05-02T08:53:53.439Z,69.35
2018-05-02T08:55:03.344Z,69.16
2018-05-02T08:56:13.189Z,69.65
2018-05-02T08:57:23.142Z,69.74
2018-05-02T08:58:33.525Z,69.55
2018-05-02T08:59:43.343Z,69.74
2018-05-02T09:00:53.172Z,69.74
2018-05-02T09:02:02.751Z,69.65
2018-05-02T09:03:12.590Z,69.65
2018-05-02T09:04:22.684Z,69.65
2018-05-02T09:05:32.263Z,69.55
2018-05-02T09:06:42.411Z,69.65
2018-05-02T09:07:52.283Z,69.74
2018-05-02T09:09:02.491Z,69.65
2018-05-02T09:10:12.621Z,69.94
2018-05-02T09:11:22.708Z,69.74
2018-05-02T09:12:32.828Z,69.65
2018-05-02T09:13:42.927Z,69.84
2018-05-02T09:14:53.042Z,69.58
2018-05-02T09:16:03.129Z,69.48
2018-05-02T09:17:12.972Z,69.68
2018-05-02T09:18:22.847Z,69.78
2018-05-02T09:19:32.674Z,69.97
2018-05-02T09:20:42.242Z,69.87
2018-05-02T09:21:52.370Z,69.87
2018-05-02T09:23:02.216Z,69.78
2018-05-02T09:24:12.371Z,69.68
2018-05-02T09:25:22.466Z,69.87
2018-05-02T09:26:32.577Z,69.78
2018-05-02T09:27:42.671Z,69.97
2018-05-02T09:28:52.239Z,69.71
2018-05-02T09:30:02.380Z,69.78
2018-05-02T09:31:12.487Z,69.48
2018-05-02T09:32:22.583Z,69.71
2018-05-02T09:33:32.681Z,69.91
2018-05-02T09:34:42.787Z,69.42
2018-05-02T09:35:52.962Z,69.32
2018-05-02T09:37:03.065Z,69.13
2018-05-02T09:38:13.194Z,69.42
2018-05-02T09:39:23.308Z,69.46
2018-05-02T09:40:33.139Z,69.65
2018-05-02T09:41:43.226Z,69.26
2018-05-02T09:42:53.316Z,69.46
2018-05-02T09:44:03.422Z,69.17
2018-05-02T09:45:13.597Z,69.26
2018-05-02T09:46:23.431Z,69.46
2018-05-02T09:47:33.582Z,69.94
2018-05-02T09:48:43.689Z,70.04
2018-05-02T09:49:53.521Z,69.84
2018-05-02T09:51:03.620Z,69.65
2018-05-02T09:52:13.726Z,69.65
2018-05-02T09:53:23.810Z,70.04
2018-05-02T09:54:33.917Z,69.84
2018-05-02T09:55:44.017Z,69.56
2018-05-02T09:56:53.837Z,69.17
2018-05-02T09:58:04.021Z,69.26
2018-05-02T09:59:14.333Z,69.26
2018-05-02T10:00:24.438Z,69.56
2018-05-02T10:01:34.005Z,69.36
2018-05-02T10:02:44.100Z,69.26
2018-05-02T10:03:53.950Z,69.78
2018-05-02T10:05:04.085Z,69.26
2018-05-02T10:06:14.186Z,69.2
2018-05-02T10:07:24.552Z,69
2018-05-02T10:08:34.644Z,69
2018-05-02T10:09:44.748Z,68.9
2018-05-02T10:10:54.586Z,68.9
2018-05-02T10:12:04.681Z,69
2018-05-02T10:13:14.804Z,68.8
2018-05-02T10:14:24.649Z,69.2
2018-05-02T10:15:34.748Z,69.04
2018-05-02T10:16:44.833Z,69.68
2018-05-02T10:17:54.932Z,69.49
2018-05-02T10:19:05.019Z,69.39
2018-05-02T10:20:15.113Z,69.39
2018-05-02T10:21:25.203Z,69.2
2018-05-02T10:22:35.350Z,69.2
2018-05-02T10:23:45.200Z,69.13
2018-05-02T10:24:55.090Z,69.23
2018-05-02T10:26:04.923Z,68.65
2018-05-02T10:27:14.753Z,69.43
2018-05-02T10:28:24.666Z,69.29
2018-05-02T10:29:34.509Z,69.29
2018-05-02T10:30:44.595Z,69.29
2018-05-02T10:31:54.702Z,69.49
2018-05-02T10:33:04.885Z,69.2
2018-05-02T10:34:14.729Z,69.1
2018-05-02T10:35:24.812Z,68.71
2018-05-02T10:36:34.920Z,68.94
2018-05-02T10:37:44.770Z,68.94
2018-05-02T10:38:54.594Z,69.04
2018-05-02T10:40:04.681Z,69.13
2018-05-02T10:41:14.779Z,69.13
2018-05-02T10:42:24.875Z,69.43
2018-05-02T10:43:34.730Z,69.53
2018-05-02T10:44:44.556Z,68.74
2018-05-02T10:45:54.381Z,69.17
2018-05-02T10:47:04.208Z,68.59
2018-05-02T10:48:14.109Z,68.59
2018-05-02T10:49:23.931Z,69.01
2018-05-02T10:50:34.210Z,68.52
2018-05-02T10:51:44.103Z,68.52
2018-05-02T10:52:54.193Z,68.32
2018-05-02T10:54:04.297Z,68.32
2018-05-02T10:55:14.394Z,68.32
2018-05-02T10:56:24.507Z,68.46
2018-05-02T10:57:34.613Z,68.75
2018-05-02T10:58:44.449Z,68.75
2018-05-02T10:59:54.522Z,68.75
2018-05-02T11:01:04.630Z,69.14
2018-05-02T11:02:14.736Z,69.34
2018-05-02T11:03:24.622Z,69.14
2018-05-02T11:04:34.723Z,69.43
2018-05-02T11:05:44.810Z,69.34
2018-05-02T11:06:54.646Z,69.14
2018-05-02T11:08:03.953Z,69.34
2018-05-02T11:09:14.103Z,69.14
2018-05-02T11:10:24.187Z,69.14
2018-05-02T11:11:34.018Z,69.04
2018-05-02T11:12:44.116Z,68.65
2018-05-02T11:13:53.950Z,69.14
2018-05-02T11:15:04.118Z,69.04
2018-05-02T11:16:14.210Z,68.95
2018-05-02T11:17:24.049Z,69.14
2018-05-02T11:18:33.896Z,69.04
2018-05-02T11:19:44.030Z,68.95
2018-05-02T11:20:54.150Z,68.95
2018-05-02T11:22:04.480Z,68.95
2018-05-02T11:23:14.725Z,68.65
2018-05-02T11:24:24.834Z,68.55
2018-05-02T11:25:34.921Z,69.17
2018-05-02T11:26:45.073Z,68.39
2018-05-02T11:27:54.643Z,68.68
2018-05-02T11:29:04.748Z,68.71
2018-05-02T11:30:14.840Z,68.71
2018-05-02T11:31:24.926Z,68.62
2018-05-02T11:32:35.098Z,68.65
2018-05-02T11:33:44.934Z,68.65
2018-05-02T11:34:54.497Z,68.55
2018-05-02T11:36:04.595Z,68.46
2018-05-02T11:37:14.716Z,68.36
2018-05-02T11:38:24.547Z,68.65
2018-05-02T11:39:34.672Z,68.55
2018-05-02T11:40:44.654Z,68.55
2018-05-02T11:41:54.749Z,68.46
2018-05-02T11:43:04.620Z,68.46
2018-05-02T11:44:14.507Z,68.82
2018-05-02T11:45:24.335Z,68.46
2018-05-02T11:46:34.469Z,68.46
2018-05-02T11:47:44.574Z,68.98
2018-05-02T11:48:54.696Z,68.49
2018-05-02T11:50:04.799Z,68.68
2018-05-02T11:51:14.893Z,68.68
2018-05-02T11:52:25.006Z,68.68
2018-05-02T11:53:34.827Z,68.68
2018-05-02T11:54:44.917Z,68.78
2018-05-02T11:55:55.057Z,68.68
2018-05-02T11:57:04.635Z,68.19
2018-05-02T11:58:14.743Z,68.29
2018-05-02T11:59:24.850Z,67.9
2018-05-02T12:00:34.946Z,68.1
2018-05-02T12:01:45.095Z,68.23
2018-05-02T12:02:55.220Z,68.23
2018-05-02T12:04:05.327Z,67.58
2018-05-02T12:05:15.440Z,67.58
2018-05-02T12:06:25.536Z,67.68
2018-05-02T12:07:35.672Z,67.71
2018-05-02T12:08:45.774Z,68.3
2018-05-02T12:09:55.861Z,68.2
2018-05-02T12:11:05.718Z,67.9
2018-05-02T12:12:15.804Z,68.2
2018-05-02T12:13:25.900Z,68.49
2018-05-02T12:14:35.998Z,68.3
2018-05-02T12:15:45.870Z,68.3
2018-05-02T12:16:55.945Z,68.3
2018-05-02T12:18:06.061Z,68.3
2018-05-02T12:19:16.142Z,68.59
2018-05-02T12:20:26.036Z,68.49
2018-05-02T12:21:36.133Z,68.65
2018-05-02T12:22:46.226Z,68.65
2018-05-02T12:23:56.337Z,68.79
2018-05-02T12:25:06.452Z,68.3
2018-05-02T12:26:16.285Z,68.59
2018-05-02T12:27:26.372Z,68.62
2018-05-02T12:28:36.204Z,68.82
2018-05-02T12:29:46.027Z,68.69
2018-05-02T12:30:56.113Z,69.73
2018-05-02T12:32:06.011Z,69.79
2018-05-02T12:33:16.124Z,70.06
2018-05-02T12:34:26.229Z,70.25
2018-05-02T12:35:36.332Z,69.18
2018-05-02T12:36:46.432Z,68.91
2018-05-02T12:37:56.544Z,68.62
2018-05-02T12:39:06.657Z,68.36
2018-05-02T12:40:16.764Z,68.75
2018-05-02T12:41:27.099Z,68.46
2018-05-02T12:42:36.674Z,69.05
2018-05-02T12:43:46.792Z,69.21
2018-05-02T12:44:56.899Z,69.67
2018-05-02T12:46:06.727Z,69.92
2018-05-02T12:47:16.816Z,70.57
2018-05-02T12:48:26.922Z,70.87
2018-05-02T12:49:37.165Z,70.15
2018-05-02T12:50:47.265Z,69.01
2018-05-02T12:51:57.389Z,68.49
2018-05-02T12:53:07.206Z,68.59
2018-05-02T12:54:17.363Z,68.59
2018-05-02T12:55:27.449Z,68.88
2018-05-02T12:56:37.564Z,68.49
2018-05-02T12:57:47.676Z,69.01
2018-05-02T12:58:57.788Z,68.33
2018-05-02T13:00:07.893Z,67.87
2018-05-02T13:01:17.754Z,67.8
2018-05-02T13:02:27.972Z,67.74
2018-05-02T13:03:37.578Z,67.77
2018-05-02T13:04:47.669Z,67.87
2018-05-02T13:05:57.772Z,67.97
2018-05-02T13:07:07.884Z,67.87
2018-05-02T13:08:17.750Z,68.04
2018-05-02T13:09:27.843Z,68.72
2018-05-02T13:10:37.956Z,68.43
2018-05-02T13:11:48.079Z,68.82
2018-05-02T13:12:58.228Z,68.69
2018-05-02T13:14:08.344Z,68.59
2018-05-02T13:15:18.171Z,68.79
2018-05-02T13:16:28.289Z,68.95
2018-05-02T13:17:38.389Z,69.24
2018-05-02T13:18:48.574Z,70.19
2018-05-02T13:19:58.680Z,69.7
2018-05-02T13:21:08.545Z,70.06
2018-05-02T13:22:18.385Z,69.86
2018-05-02T13:23:28.621Z,69.37
2018-05-02T13:24:38.788Z,69.96
2018-05-02T13:25:48.995Z,69.57
2018-05-02T13:26:59.105Z,69.76
2018-05-02T13:28:09.205Z,69.57
2018-05-02T13:29:19.321Z,69.63
2018-05-02T13:30:29.477Z,70.21
2018-05-02T13:31:39.580Z,70.12
2018-05-02T13:32:49.700Z,69.89
2018-05-02T13:33:59.532Z,70.18
2018-05-02T13:35:09.717Z,69.99
2018-05-02T13:36:19.926Z,69.7
2018-05-02T13:37:30.018Z,69.24
2018-05-02T13:38:39.865Z,69.34
2018-05-02T13:39:50.017Z,69.08
2018-05-02T13:41:00.131Z,69.53
2018-05-02T13:42:10.217Z,69.34
2018-05-02T13:43:20.047Z,69.08
2018-05-02T13:44:29.891Z,69.08
2018-05-02T13:45:39.723Z,69.47
2018-05-02T13:46:49.839Z,69.76
2018-05-02T13:47:59.684Z,69.43
2018-05-02T13:49:09.578Z,70.02
2018-05-02T13:50:19.848Z,69.92
2018-05-02T13:51:29.950Z,70.48
2018-05-02T13:52:40.062Z,70.67
2018-05-02T13:53:50.283Z,70.25
2018-05-02T13:55:00.126Z,70.31
2018-05-02T13:56:10.032Z,70.31
2018-05-02T13:57:20.137Z,69.85
2018-05-02T13:58:29.994Z,69.7
2018-05-02T13:59:40.094Z,68.85
2018-05-02T14:00:50.226Z,68.49
2018-05-02T14:02:00.433Z,68.98
2018-05-02T14:03:10.545Z,68.49
2018-05-02T14:04:20.634Z,68.49
2018-05-02T14:05:30.804Z,69.27
2018-05-02T14:06:40.904Z,68.88
2018-05-02T14:07:50.785Z,68.49
2018-05-02T14:09:01.129Z,68.91
2018-05-02T14:10:11.280Z,69.11
2018-05-02T14:11:21.437Z,69.27
2018-05-02T14:12:31.289Z,69.57
2018-05-02T14:13:41.414Z,69.73
2018-05-02T14:14:51.526Z,70.7
2018-05-02T14:16:01.701Z,70.57
2018-05-02T14:17:11.546Z,70.97
2018-05-02T14:18:21.393Z,69.7
2018-05-02T14:19:31.235Z,70.57
2018-05-02T14:20:41.343Z,70.28
2018-05-02T14:21:51.682Z,70.87
2018-05-02T14:23:01.786Z,71.03
2018-05-02T14:24:11.876Z,70.34
2018-05-02T14:25:21.734Z,71.32
2018-05-02T14:26:31.937Z,71.09
2018-05-02T14:27:42.057Z,71.09
2018-05-02T14:28:52.190Z,70.41
2018-05-02T14:30:02.318Z,70.64
2018-05-02T14:31:12.422Z,70.64
2018-05-02T14:32:22.526Z,70.64
2018-05-02T14:33:32.376Z,70.54
2018-05-02T14:34:42.497Z,70.44
2018-05-02T14:35:52.595Z,70.44
2018-05-02T14:37:02.689Z,69.66
2018-05-02T14:38:12.957Z,69.11
2018-05-02T14:39:22.632Z,69.27
2018-05-02T14:40:32.730Z,68.59
2018-05-02T14:41:42.833Z,68.62
2018-05-02T14:42:52.943Z,68.62
2018-05-02T14:44:03.030Z,68.91
2018-05-02T14:45:13.224Z,69.89
2018-05-02T14:46:23.630Z,70.06
2018-05-02T14:47:33.794Z,69.92
2018-05-02T14:48:43.900Z,69.73
2018-05-02T14:49:53.997Z,69.18
2018-05-02T14:51:04.093Z,69.11
2018-05-02T14:52:13.671Z,69.31
2018-05-02T14:53:23.780Z,69.21
2018-05-02T14:54:33.920Z,69.79
2018-05-02T14:55:44.024Z,70.06
2018-05-02T14:56:54.130Z,70.45
2018-05-02T14:58:04.202Z,70.7
2018-05-02T14:59:14.387Z,70.67
2018-05-02T15:00:24.498Z,71.06
2018-05-02T15:01:34.715Z,71.16
2018-05-02T15:02:44.969Z,70.97
2018-05-02T15:03:54.795Z,71.12
2018-05-02T15:05:04.964Z,71.12
2018-05-02T15:06:15.071Z,71.42
2018-05-02T15:07:25.399Z,71.32
2018-05-02T15:08:35.511Z,71.58
2018-05-02T15:09:45.640Z,71.39
2018-05-02T15:10:55.476Z,71.58
2018-05-02T15:12:05.641Z,71.39
2018-05-02T15:13:15.744Z,71.09
2018-05-02T15:14:25.835Z,71.39
2018-05-02T15:15:35.932Z,71.74
2018-05-02T15:16:46.040Z,72.13
2018-05-02T15:17:56.189Z,72.09
2018-05-02T15:19:06.504Z,72.39
2018-05-02T15:20:16.595Z,72.84
2018-05-02T15:21:26.416Z,73.49
2018-05-02T15:22:36.527Z,74
2018-05-02T15:23:46.670Z,74.61
2018-05-02T15:24:56.796Z,74.44
2018-05-02T15:26:06.904Z,74.6
2018-05-02T15:27:17.222Z,74.65
2018-05-02T15:28:27.317Z,74.52
2018-05-02T15:29:37.476Z,73.71
2018-05-02T15:30:47.315Z,74.26
2018-05-02T15:31:57.404Z,73.77
2018-05-02T15:33:07.510Z,73.38
2018-05-02T15:34:17.623Z,72.89
2018-05-02T15:35:27.748Z,72.71
2018-05-02T15:36:37.859Z,72.31
2018-05-02T15:37:47.943Z,72.12